createdAt,value
2019-01-27T00:00:57.373Z,98565.61
2019-01-27T00:03:26.949Z,98567.18
2019-01-27T00:05:56.515Z,98569.91
2019-01-27T00:08:25.910Z,98576.14
2019-01-27T00:10:55.342Z,98581.05
2019-01-27T00:13:24.847Z,98585.98
2019-01-27T00:15:54.355Z,98592.16
2019-01-27T00:18:23.824Z,98600.90
2019-01-27T00:20:53.200Z,98608.26
2019-01-27T00:23:22.740Z,98602.66
2019-01-27T00:25:52.371Z,98612.67
2019-01-27T00:28:21.766Z,98615.05
2019-01-27T00:30:51.287Z,98632.63
2019-01-27T00:33:20.869Z,98641.66
2019-01-27T00:35:50.278Z,98643.57
2019-01-27T00:38:19.768Z,98646.20
2019-01-27T00:40:49.528Z,98641.84
2019-01-27T00:43:18.971Z,98641.42
2019-01-27T00:45:48.374Z,98643.52
2019-01-27T00:48:18.455Z,98641.81
2019-01-27T00:50:47.958Z,98650.31
2019-01-27T00:53:17.380Z,98650.71
2019-01-27T00:55:46.836Z,98651.72
2019-01-27T00:58:16.441Z,98645.27
2019-01-27T01:00:45.982Z,98642.67
2019-01-27T01:03:15.988Z,98640.59
2019-01-27T01:05:45.503Z,98645.00
2019-01-27T01:08:16.575Z,98654.12
2019-01-27T01:10:46.023Z,98644.72
2019-01-27T01:13:15.618Z,98646.09
2019-01-27T01:15:45.265Z,98649.12
2019-01-27T01:18:14.698Z,98654.28
2019-01-27T01:20:44.091Z,98646.41
2019-01-27T01:23:13.601Z,98652.42
2019-01-27T01:25:43.293Z,98658.08
2019-01-27T01:28:12.850Z,98644.10
2019-01-27T01:30:43.289Z,98648.01
2019-01-27T01:33:12.851Z,98648.52
2019-01-27T01:35:42.366Z,98643.30
2019-01-27T01:38:11.875Z,98643.25
2019-01-27T01:40:41.334Z,98641.10
2019-01-27T01:43:10.818Z,98644.02
2019-01-27T01:45:40.348Z,98636.95
2019-01-27T01:48:10.070Z,98639.61
2019-01-27T01:50:39.469Z,98641.59
2019-01-27T01:53:09.064Z,98643.30
2019-01-27T01:55:38.633Z,98646.41
2019-01-27T01:58:08.247Z,98644.66
2019-01-27T02:00:37.644Z,98639.39
2019-01-27T02:03:07.280Z,98641.02
2019-01-27T02:05:36.772Z,98638.30
2019-01-27T02:08:06.401Z,98640.84
2019-01-27T02:10:35.827Z,98636.54
2019-01-27T02:13:05.839Z,98637.90
2019-01-27T02:16:01.627Z,98641.47
2019-01-27T02:18:31.280Z,98639.70
2019-01-27T02:21:00.678Z,98651.03
2019-01-27T02:23:30.221Z,98648.11
2019-01-27T02:25:59.857Z,98655.62
2019-01-27T02:28:29.272Z,98647.05
2019-01-27T02:30:58.897Z,98649.25
2019-01-27T02:33:30.641Z,98650.66
2019-01-27T02:36:00.054Z,98654.23
2019-01-27T02:38:29.616Z,98661.69
2019-01-27T02:40:59.111Z,98658.71
2019-01-27T02:43:28.523Z,98662.14
2019-01-27T02:45:57.996Z,98662.27
2019-01-27T02:48:27.506Z,98656.38
2019-01-27T02:50:57.019Z,98659.91
2019-01-27T02:53:26.472Z,98655.25
2019-01-27T02:55:55.906Z,98659.32
2019-01-27T02:58:25.406Z,98658.81
2019-01-27T03:00:54.960Z,98663.17
2019-01-27T03:03:24.469Z,98664.87
2019-01-27T03:06:16.064Z,98677.03
2019-01-27T03:09:10.255Z,98662.77
2019-01-27T03:11:49.186Z,98664.12
2019-01-27T03:14:20.777Z,98667.20
2019-01-27T03:16:51.755Z,98653.79
2019-01-27T03:19:21.251Z,98648.58
2019-01-27T03:21:50.774Z,98654.19
2019-01-27T03:24:20.377Z,98660.34
2019-01-27T03:26:49.869Z,98662.25
2019-01-27T03:29:19.352Z,98664.02
2019-01-27T03:31:50.331Z,98670.52
2019-01-27T03:34:20.086Z,98678.66
2019-01-27T03:36:49.552Z,98679.91
2019-01-27T03:39:19.159Z,98681.16
2019-01-27T03:41:48.560Z,98680.16
2019-01-27T03:44:18.066Z,98678.50
2019-01-27T03:46:47.600Z,98682.19
2019-01-27T03:49:16.981Z,98679.46
2019-01-27T03:51:46.487Z,98676.94
2019-01-27T03:54:15.921Z,98686.66
2019-01-27T03:56:45.315Z,98688.75
2019-01-27T03:59:14.945Z,98700.47
2019-01-27T04:01:44.487Z,98704.98
2019-01-27T04:04:13.890Z,98703.34
2019-01-27T04:06:43.294Z,98707.70
2019-01-27T04:09:14.358Z,98707.06
2019-01-27T04:11:43.903Z,98710.13
2019-01-27T04:14:13.304Z,98709.84
2019-01-27T04:16:42.739Z,98715.89
2019-01-27T04:19:12.233Z,98720.34
2019-01-27T04:21:41.711Z,98718.55
2019-01-27T04:24:11.335Z,98717.36
2019-01-27T04:26:40.763Z,98719.52
2019-01-27T04:29:10.269Z,98723.16
2019-01-27T04:31:39.716Z,98733.07
2019-01-27T04:34:09.239Z,98735.83
2019-01-27T04:36:38.755Z,98741.09
2019-01-27T04:39:11.084Z,98737.69
2019-01-27T04:41:40.614Z,98733.88
2019-01-27T04:44:10.139Z,98741.39
2019-01-27T04:46:39.720Z,98741.00
2019-01-27T04:49:09.135Z,98744.95
2019-01-27T04:51:38.526Z,98738.95
2019-01-27T04:54:08.097Z,98742.69
2019-01-27T04:56:37.604Z,98727.87
2019-01-27T04:59:07.106Z,98732.98
2019-01-27T05:01:36.721Z,98727.52
2019-01-27T05:04:25.259Z,98726.45
2019-01-27T05:06:54.903Z,98742.31
2019-01-27T05:09:24.310Z,98736.11
2019-01-27T05:11:53.841Z,98746.09
2019-01-27T05:14:23.575Z,98749.50
2019-01-27T05:16:52.982Z,98760.70
2019-01-27T05:19:22.477Z,98755.45
2019-01-27T05:21:52.022Z,98755.95
2019-01-27T05:24:21.428Z,98765.97
2019-01-27T05:26:50.857Z,98766.41
2019-01-27T05:29:20.388Z,98763.48
2019-01-27T05:31:49.937Z,98771.63
2019-01-27T05:34:19.356Z,98778.52
2019-01-27T05:36:48.807Z,98767.52
2019-01-27T05:39:18.296Z,98772.22
2019-01-27T05:41:47.803Z,98782.06
2019-01-27T05:44:17.267Z,98775.16
2019-01-27T05:46:46.705Z,98774.66
2019-01-27T05:49:16.207Z,98774.25
2019-01-27T05:51:45.657Z,98784.06
2019-01-27T05:54:15.162Z,98773.65
2019-01-27T05:56:44.675Z,98786.49
2019-01-27T05:59:14.270Z,98784.19
2019-01-27T06:01:43.679Z,98783.72
2019-01-27T06:04:13.178Z,98785.77
2019-01-27T06:06:42.707Z,98786.52
2019-01-27T06:09:12.106Z,98792.84
2019-01-27T06:11:41.511Z,98792.24
2019-01-27T06:14:11.192Z,98798.23
2019-01-27T06:16:40.691Z,98805.53
2019-01-27T06:19:10.191Z,98811.94
2019-01-27T06:21:39.629Z,98811.94
2019-01-27T06:24:09.135Z,98813.52
2019-01-27T06:26:38.622Z,98816.88
2019-01-27T06:29:08.067Z,98824.08
2019-01-27T06:31:37.667Z,98828.71
2019-01-27T06:34:10.497Z,98816.38
2019-01-27T06:36:40.040Z,98809.84
2019-01-27T06:39:10.558Z,98827.01
2019-01-27T06:41:40.038Z,98818.95
2019-01-27T06:44:09.486Z,98823.16
2019-01-27T06:46:38.932Z,98826.93
2019-01-27T06:49:08.460Z,98822.97
2019-01-27T06:51:38.035Z,98828.47
2019-01-27T06:54:07.545Z,98823.77
2019-01-27T06:56:36.928Z,98823.20
2019-01-27T06:59:24.102Z,98829.26
2019-01-27T07:02:15.510Z,98823.30
2019-01-27T07:05:10.076Z,98829.67
2019-01-27T07:07:55.721Z,98823.44
2019-01-27T07:10:42.515Z,98821.03
2019-01-27T07:13:29.511Z,98818.03
2019-01-27T07:16:26.765Z,98822.53
2019-01-27T07:19:15.336Z,98823.12
2019-01-27T07:22:06.692Z,98816.55
2019-01-27T07:25:07.247Z,98813.23
2019-01-27T07:27:47.800Z,98819.98
2019-01-27T07:30:51.300Z,98811.75
2019-01-27T07:33:54.950Z,98812.23
2019-01-27T07:36:37.350Z,98809.35
2019-01-27T07:39:31.160Z,98809.09
2019-01-27T07:42:16.641Z,98813.58
2019-01-27T07:45:00.589Z,98810.58
2019-01-27T07:48:03.977Z,98812.67
2019-01-27T07:51:07.613Z,98803.52
2019-01-27T07:53:55.940Z,98796.84
2019-01-27T07:56:43.703Z,98798.47
2019-01-27T07:59:34.683Z,98793.70
2019-01-27T08:02:23.241Z,98799.95
2019-01-27T08:05:26.679Z,98786.03
2019-01-27T08:08:11.415Z,98785.64
2019-01-27T08:11:05.772Z,98784.31
2019-01-27T08:13:41.067Z,98796.09
2019-01-27T08:16:29.455Z,98792.95
2019-01-27T08:19:24.970Z,98797.25
2019-01-27T08:22:16.225Z,98787.63
2019-01-27T08:25:10.725Z,98798.84
2019-01-27T08:27:59.125Z,98795.63
2019-01-27T08:30:44.515Z,98797.88
2019-01-27T08:33:32.138Z,98807.42
2019-01-27T08:36:23.381Z,98815.87
2019-01-27T08:39:10.571Z,98822.80
2019-01-27T08:42:17.245Z,98821.22
2019-01-27T08:45:04.415Z,98816.58
2019-01-27T08:47:34.080Z,98817.02
2019-01-27T08:50:03.555Z,98824.06
2019-01-27T08:52:33.038Z,98827.27
2019-01-27T08:55:02.601Z,98839.08
2019-01-27T08:57:31.979Z,98835.27
2019-01-27T09:00:01.382Z,98836.94
2019-01-27T09:02:44.332Z,98841.38
2019-01-27T09:05:25.063Z,98840.60
2019-01-27T09:08:05.687Z,98835.50
2019-01-27T09:10:44.474Z,98845.59
2019-01-27T09:13:24.493Z,98842.80
2019-01-27T09:16:18.878Z,98839.09
2019-01-27T09:19:13.864Z,98841.28
2019-01-27T09:22:14.158Z,98844.42
2019-01-27T09:25:00.523Z,98844.39
2019-01-27T09:27:38.042Z,98838.91
2019-01-27T09:30:17.932Z,98832.12
2019-01-27T09:33:02.598Z,98836.05
2019-01-27T09:36:06.127Z,98835.14
2019-01-27T09:38:44.983Z,98833.38
2019-01-27T09:41:42.386Z,98836.38
2019-01-27T09:44:36.754Z,98846.50
2019-01-27T09:47:15.925Z,98846.31
2019-01-27T09:50:03.580Z,98840.34
2019-01-27T09:52:55.059Z,98847.09
2019-01-27T09:55:42.056Z,98844.33
2019-01-27T09:58:23.942Z,98842.95
2019-01-27T10:01:05.191Z,98842.58
2019-01-27T10:04:02.890Z,98840.46
2019-01-27T10:06:51.286Z,98831.38
2019-01-27T10:09:36.632Z,98833.97
2019-01-27T10:12:28.068Z,98832.19
2019-01-27T10:15:14.833Z,98820.39
2019-01-27T10:18:01.762Z,98820.75
2019-01-27T10:20:52.988Z,98819.02
2019-01-27T10:23:42.029Z,98831.35
2019-01-27T10:26:24.741Z,98816.28
2019-01-27T10:29:11.775Z,98814.47
2019-01-27T10:31:54.372Z,98818.83
2019-01-27T10:34:35.756Z,98823.27
2019-01-27T10:37:27.881Z,98806.69
2019-01-27T10:40:09.324Z,98798.55
2019-01-27T10:42:43.232Z,98795.96
2019-01-27T10:45:22.419Z,98802.59
2019-01-27T10:48:26.826Z,98794.06
2019-01-27T10:51:15.189Z,98796.61
2019-01-27T10:54:09.657Z,98791.21
2019-01-27T10:56:47.481Z,98791.67
2019-01-27T10:59:25.515Z,98789.17
2019-01-27T11:02:12.420Z,98787.59
2019-01-27T11:05:06.769Z,98782.45
2019-01-27T11:08:04.213Z,98794.12
2019-01-27T11:11:07.771Z,98788.10
2019-01-27T11:14:02.014Z,98791.29
2019-01-27T11:17:08.828Z,98787.29
2019-01-27T11:19:44.051Z,98781.11
2019-01-27T11:22:38.429Z,98780.89
2019-01-27T11:25:27.062Z,98779.25
2019-01-27T11:28:12.915Z,98778.33
2019-01-27T11:30:49.751Z,98776.85
2019-01-27T11:33:28.216Z,98778.11
2019-01-27T11:36:16.177Z,98770.16
2019-01-27T11:39:02.873Z,98760.83
2019-01-27T11:42:09.683Z,98764.61
2019-01-27T11:44:52.830Z,98761.09
2019-01-27T11:47:52.923Z,98760.20
2019-01-27T11:50:42.534Z,98756.02
2019-01-27T11:53:12.012Z,98764.27
2019-01-27T11:55:41.488Z,98757.79
2019-01-27T11:58:10.912Z,98758.72
2019-01-27T12:00:42.378Z,98756.05
2019-01-27T12:03:11.847Z,98765.02
2019-01-27T12:05:41.266Z,98758.28
2019-01-27T12:08:10.685Z,98762.97
2019-01-27T12:10:40.258Z,98755.71
2019-01-27T12:13:09.763Z,98752.36
2019-01-27T12:15:39.170Z,98755.08
2019-01-27T12:18:08.641Z,98754.12
2019-01-27T12:20:38.338Z,98754.00
2019-01-27T12:23:07.710Z,98751.37
2019-01-27T12:25:37.229Z,98749.80
2019-01-27T12:28:06.758Z,98749.19
2019-01-27T12:30:36.128Z,98744.45
2019-01-27T12:33:05.499Z,98739.61
2019-01-27T12:35:35.106Z,98741.30
2019-01-27T12:38:05.210Z,98746.84
2019-01-27T12:40:34.642Z,98756.38
2019-01-27T12:43:04.466Z,98755.38
2019-01-27T12:45:34.049Z,98756.23
2019-01-27T12:48:03.555Z,98753.92
2019-01-27T12:50:33.002Z,98757.45
2019-01-27T12:53:02.371Z,98756.87
2019-01-27T12:55:31.946Z,98760.72
2019-01-27T12:58:01.520Z,98768.91
2019-01-27T13:00:34.026Z,98760.92
2019-01-27T13:03:03.442Z,98763.73
2019-01-27T13:05:33.174Z,98761.22
2019-01-27T13:08:02.656Z,98757.37
2019-01-27T13:10:32.154Z,98752.48
2019-01-27T13:13:01.697Z,98753.05
2019-01-27T13:15:31.286Z,98750.50
2019-01-27T13:18:00.809Z,98751.09
2019-01-27T13:20:30.238Z,98753.25
2019-01-27T13:22:59.613Z,98738.47
2019-01-27T13:25:29.106Z,98755.66
2019-01-27T13:27:58.860Z,98749.38
2019-01-27T13:30:28.252Z,98747.92
2019-01-27T13:32:57.644Z,98745.44
2019-01-27T13:35:27.173Z,98742.56
2019-01-27T13:37:56.688Z,98738.48
2019-01-27T13:40:26.547Z,98734.91
2019-01-27T13:42:56.365Z,98738.01
2019-01-27T13:45:29.346Z,98741.72
2019-01-27T13:47:59.301Z,98739.66
2019-01-27T13:50:28.928Z,98733.83
2019-01-27T13:52:58.618Z,98739.70
2019-01-27T13:55:29.919Z,98737.63
2019-01-27T13:57:59.478Z,98734.86
2019-01-27T14:00:31.330Z,98734.98
2019-01-27T14:03:00.929Z,98737.30
2019-01-27T14:05:30.369Z,98739.52
2019-01-27T14:07:59.757Z,98735.66
2019-01-27T14:10:29.886Z,98728.92
2019-01-27T14:12:59.626Z,98725.82
2019-01-27T14:15:33.645Z,98729.38
2019-01-27T14:18:03.077Z,98727.25
2019-01-27T14:20:32.662Z,98728.39
2019-01-27T14:23:02.063Z,98729.09
2019-01-27T14:25:31.883Z,98729.47
2019-01-27T14:30:32.049Z,98729.18
2019-01-27T14:33:01.424Z,98733.48
2019-01-27T14:35:30.812Z,98723.19
2019-01-27T14:38:00.329Z,98729.52
2019-01-27T14:40:30.408Z,98722.25
2019-01-27T14:43:00.927Z,98723.80
2019-01-27T14:45:30.917Z,98723.83
2019-01-27T14:48:00.758Z,98725.05
2019-01-27T14:50:32.413Z,98725.00
2019-01-27T14:53:01.904Z,98725.56
2019-01-27T14:55:31.718Z,98727.68
2019-01-27T14:58:01.203Z,98730.69
2019-01-27T15:00:36.335Z,98728.17
2019-01-27T15:03:04.439Z,98729.88
2019-01-27T15:05:33.959Z,98730.50
2019-01-27T15:08:03.583Z,98733.13
2019-01-27T15:10:33.049Z,98734.28
2019-01-27T15:13:02.533Z,98738.09
2019-01-27T15:15:32.045Z,98740.27
2019-01-27T15:18:01.416Z,98741.06
2019-01-27T15:20:36.207Z,98742.42
2019-01-27T15:23:05.802Z,98751.09
2019-01-27T15:25:35.320Z,98751.94
2019-01-27T15:28:05.132Z,98751.64
2019-01-27T15:30:35.092Z,98758.57
2019-01-27T15:33:06.599Z,98762.88
2019-01-27T15:35:36.121Z,98763.79
2019-01-27T15:38:05.735Z,98764.41
2019-01-27T15:40:35.126Z,98761.48
2019-01-27T15:43:04.920Z,98773.29
2019-01-27T15:45:34.487Z,98776.97
2019-01-27T15:48:03.890Z,98775.66
2019-01-27T15:50:33.988Z,98783.19
2019-01-27T15:53:03.392Z,98786.20
2019-01-27T15:55:32.768Z,98792.27
2019-01-27T15:58:02.292Z,98790.95
2019-01-27T16:00:32.191Z,98792.88
2019-01-27T16:03:01.598Z,98791.45
2019-01-27T16:05:31.337Z,98790.41
2019-01-27T16:08:00.825Z,98796.50
2019-01-27T16:10:30.417Z,98793.53
2019-01-27T16:13:00.003Z,98795.61
2019-01-27T16:15:30.925Z,98792.38
2019-01-27T16:18:00.407Z,98800.74
2019-01-27T16:20:30.115Z,98804.68
2019-01-27T16:23:13.267Z,98805.75
2019-01-27T16:25:42.862Z,98811.27
2019-01-27T16:28:12.440Z,98811.42
2019-01-27T16:31:04.162Z,98807.72
2019-01-27T16:33:39.032Z,98806.19
2019-01-27T16:36:08.595Z,98812.89
2019-01-27T16:38:38.002Z,98812.45
2019-01-27T16:41:07.707Z,98814.88
2019-01-27T16:43:37.292Z,98821.05
2019-01-27T16:46:06.897Z,98823.05
2019-01-27T16:48:36.307Z,98821.88
2019-01-27T16:51:11.443Z,98828.94
2019-01-27T16:53:55.804Z,98831.00
2019-01-27T16:56:25.331Z,98835.84
2019-01-27T16:58:54.733Z,98840.61
2019-01-27T17:01:24.418Z,98838.77
2019-01-27T17:03:54.042Z,98835.75
2019-01-27T17:06:23.524Z,98836.92
2019-01-27T17:08:52.934Z,98829.20
2019-01-27T17:11:22.397Z,98837.91
2019-01-27T17:13:51.890Z,98835.70
2019-01-27T17:16:21.498Z,98836.75
2019-01-27T17:18:52.893Z,98836.02
2019-01-27T17:21:22.409Z,98834.08
2019-01-27T17:23:51.907Z,98834.72
2019-01-27T17:26:21.429Z,98833.41
2019-01-27T17:28:50.823Z,98834.23
2019-01-27T17:31:20.304Z,98837.55
2019-01-27T17:33:49.939Z,98834.72
2019-01-27T17:36:19.566Z,98837.63
2019-01-27T17:38:49.041Z,98840.84
2019-01-27T17:41:18.519Z,98845.84
2019-01-27T17:43:48.012Z,98845.98
2019-01-27T17:46:17.708Z,98844.78
2019-01-27T17:48:47.331Z,98849.73
2019-01-27T17:51:16.854Z,98852.63
2019-01-27T17:53:52.720Z,98846.70
2019-01-27T17:56:22.877Z,98843.77
2019-01-27T17:59:00.712Z,98845.92
2019-01-27T18:01:58.299Z,98848.27
2019-01-27T18:04:52.833Z,98853.09
2019-01-27T18:07:46.973Z,98854.72
2019-01-27T18:10:31.462Z,98856.95
2019-01-27T18:13:18.395Z,98862.98
2019-01-27T18:15:47.856Z,98862.89
2019-01-27T18:18:17.258Z,98875.31
2019-01-27T18:20:46.856Z,98873.22
2019-01-27T18:23:16.375Z,98869.82
2019-01-27T18:25:45.774Z,98864.78
2019-01-27T18:28:15.224Z,98869.27
2019-01-27T18:30:45.119Z,98873.70
2019-01-27T18:33:14.529Z,98872.09
2019-01-27T18:35:44.141Z,98874.93
2019-01-27T18:38:13.709Z,98875.34
2019-01-27T18:40:43.126Z,98876.58
2019-01-27T18:43:12.540Z,98875.52
2019-01-27T18:45:42.077Z,98880.84
2019-01-27T18:48:12.186Z,98881.94
2019-01-27T18:50:41.675Z,98882.67
2019-01-27T18:53:18.715Z,98878.99
2019-01-27T18:56:04.415Z,98878.69
2019-01-27T18:58:51.709Z,98877.25
2019-01-27T19:01:30.491Z,98876.00
2019-01-27T19:04:12.108Z,98880.47
2019-01-27T19:07:12.519Z,98875.91
2019-01-27T19:09:52.450Z,98879.62
2019-01-27T19:12:49.937Z,98875.17
2019-01-27T19:15:47.800Z,98877.06
2019-01-27T19:18:35.063Z,98883.90
2019-01-27T19:21:32.399Z,98883.14
2019-01-27T19:24:27.792Z,98881.89
2019-01-27T19:27:16.258Z,98880.95
2019-01-27T19:29:54.298Z,98880.61
2019-01-27T19:32:49.899Z,98874.91
2019-01-27T19:35:37.026Z,98883.93
2019-01-27T19:38:25.481Z,98888.86
2019-01-27T19:41:28.702Z,98893.17
2019-01-27T19:44:20.017Z,98888.08
2019-01-27T19:47:26.190Z,98891.59
2019-01-27T19:50:17.730Z,98891.64
2019-01-27T19:53:05.508Z,98884.27
2019-01-27T19:55:52.100Z,98887.67
2019-01-27T19:58:35.073Z,98892.61
2019-01-27T20:01:15.833Z,98897.77
2019-01-27T20:04:09.249Z,98906.10
2019-01-27T20:06:58.997Z,98907.97
2019-01-27T20:09:56.098Z,98903.33
2019-01-27T20:12:42.773Z,98908.33
2019-01-27T20:15:26.906Z,98913.52
2019-01-27T20:18:06.687Z,98907.69
2019-01-27T20:20:58.046Z,98909.78
2019-01-27T20:23:36.936Z,98908.93
2019-01-27T20:26:30.048Z,98904.47
2019-01-27T20:29:21.536Z,98904.47
2019-01-27T20:32:09.850Z,98898.56
2019-01-27T20:35:16.885Z,98902.87
2019-01-27T20:37:57.728Z,98913.36
2019-01-27T20:40:45.992Z,98914.00
2019-01-27T20:43:28.655Z,98921.82
2019-01-27T20:46:23.055Z,98917.91
2019-01-27T20:49:14.378Z,98916.02
2019-01-27T20:51:54.069Z,98909.00
2019-01-27T20:54:51.388Z,98894.66
2019-01-27T20:57:31.197Z,98892.80
2019-01-27T21:00:19.528Z,98890.69
2019-01-27T21:03:13.841Z,98883.43
2019-01-27T21:05:58.445Z,98882.18
2019-01-27T21:08:52.750Z,98887.74
2019-01-27T21:11:46.843Z,98890.75
2019-01-27T21:14:38.311Z,98886.09
2019-01-27T21:17:16.402Z,98879.63
2019-01-27T21:19:59.515Z,98873.53
2019-01-27T21:22:28.909Z,98877.66
2019-01-27T21:24:58.304Z,98877.25
2019-01-27T21:27:27.833Z,98873.51
2019-01-27T21:29:57.239Z,98869.84
2019-01-27T21:32:26.805Z,98868.98
2019-01-27T21:34:56.644Z,98867.92
2019-01-27T21:37:26.063Z,98865.37
2019-01-27T21:39:55.461Z,98865.66
2019-01-27T21:42:25.215Z,98869.91
2019-01-27T21:44:54.676Z,98874.22
2019-01-27T21:47:24.074Z,98877.33
2019-01-27T21:49:53.710Z,98885.25
2019-01-27T21:52:23.193Z,98885.81
2019-01-27T21:54:52.714Z,98881.07
2019-01-27T21:57:22.288Z,98875.84
2019-01-27T21:59:51.793Z,98874.31
2019-01-27T22:02:21.403Z,98868.59
2019-01-27T22:04:50.931Z,98877.66
2019-01-27T22:07:20.328Z,98883.27
2019-01-27T22:09:49.814Z,98881.63
2019-01-27T22:12:19.232Z,98877.07
2019-01-27T22:14:48.641Z,98871.43
2019-01-27T22:17:18.156Z,98870.38
2019-01-27T22:19:47.667Z,98865.57
2019-01-27T22:22:17.062Z,98866.53
2019-01-27T22:24:46.446Z,98864.22
2019-01-27T22:27:15.982Z,98862.56
2019-01-27T22:29:45.457Z,98862.17
2019-01-27T22:32:14.954Z,98862.44
2019-01-27T22:34:44.405Z,98853.05
2019-01-27T22:37:15.167Z,98856.05
2019-01-27T22:39:44.725Z,98849.80
2019-01-27T22:42:14.344Z,98846.01
2019-01-27T22:44:43.751Z,98846.02
2019-01-27T22:47:13.230Z,98833.95
2019-01-27T22:49:42.854Z,98832.37
2019-01-27T22:52:12.242Z,98830.72
2019-01-27T22:54:41.653Z,98835.28
2019-01-27T22:57:11.271Z,98829.67
2019-01-27T22:59:40.752Z,98829.53
2019-01-27T23:02:10.282Z,98818.41
2019-01-27T23:04:39.739Z,98821.52
2019-01-27T23:07:09.222Z,98815.12
2019-01-27T23:09:38.700Z,98818.46
2019-01-27T23:12:08.154Z,98816.52
2019-01-27T23:14:37.556Z,98831.66
2019-01-27T23:17:07.061Z,98831.82
2019-01-27T23:19:36.587Z,98835.69
2019-01-27T23:22:05.983Z,98833.72
2019-01-27T23:24:35.388Z,98835.92
2019-01-27T23:27:05.228Z,98840.90
2019-01-27T23:29:34.611Z,98841.47
2019-01-27T23:32:04.105Z,98849.71
2019-01-27T23:34:33.655Z,98856.22
2019-01-27T23:37:03.047Z,98856.22
2019-01-27T23:39:33.628Z,98854.72
2019-01-27T23:42:03.171Z,98859.36
2019-01-27T23:44:32.753Z,98858.41
2019-01-27T23:47:02.126Z,98849.41
2019-01-27T23:49:31.564Z,98855.52
2019-01-27T23:52:01.071Z,98849.34
2019-01-27T23:54:30.558Z,98849.48
2019-01-27T23:57:00.234Z,98850.39
2019-01-27T23:59:29.642Z,98848.69
